San Diego, California
Traffic Map
Current Weather Conditions
San Diego, California
Broken Clouds
Broken Clouds
15°
Feels Like: 15°
Wind Chill: 15° Ceiling: 1400
Heat Index: 15° Visibility: 8mi
Dew Point: 11° Wind: 3mph
Humidity: 75% Direction: 360° (N)
Pressure: 30.06in Gusts: 0mph
Raw Report DataKSAN 251051Z 36003KT 8SM BKN014 15/11 A3006 RMK AO2 SLP179 T01500106
Traffic Incident Summary
Active as of:
Severity:
Category:
InformationThere was an issue retrieving the traffic information for this location. Please try a different location or try again shortly.
Advertisements